sensor_id;sensor_type;location;lat;lon;timestamp;pressure;altitude;pressure_sealevel;temperature;humidity
77360;BME280;66426;51.454;7.266;2023-08-06T00:00:37;99066.00;;;15.13;nan
77360;BME280;66426;51.454;7.266;2023-08-06T00:01:38;99060.44;;;15.15;nan
77360;BME280;66426;51.454;7.266;2023-08-06T00:02:39;99065.00;;;15.14;nan
77360;BME280;66426;51.454;7.266;2023-08-06T00:03:40;99059.56;;;15.14;nan
77360;BME280;66426;51.454;7.266;2023-08-06T00:04:41;99063.53;;;15.10;nan
77360;BME280;66426;51.454;7.266;2023-08-06T00:05:42;99067.88;;;15.13;nan
77360;BME280;66426;51.454;7.266;2023-08-06T00:06:43;99063.16;;;15.15;nan
77360;BME280;66426;51.454;7.266;2023-08-06T00:07:44;99065.41;;;15.09;nan
77360;BME280;66426;51.454;7.266;2023-08-06T00:08:48;99067.88;;;15.13;nan
77360;BME280;66426;51.454;7.266;2023-08-06T00:09:49;99076.47;;;15.18;nan
77360;BME280;66426;51.454;7.266;2023-08-06T00:10:50;99075.84;;;15.14;nan
77360;BME280;66426;51.454;7.266;2023-08-06T00:11:52;99067.88;;;15.13;nan
77360;BME280;66426;51.454;7.266;2023-08-06T00:12:53;99065.72;;;15.16;nan
77360;BME280;66426;51.454;7.266;2023-08-06T00:13:54;99064.72;;;15.17;nan
77360;BME280;66426;51.454;7.266;2023-08-06T00:14:55;99064.16;;;15.14;nan
77360;BME280;66426;51.454;7.266;2023-08-06T00:15:56;99061.91;;;15.19;nan
77360;BME280;66426;51.454;7.266;2023-08-06T00:17:08;99064.88;;;15.16;nan
77360;BME280;66426;51.454;7.266;2023-08-06T00:18:09;99070.31;;;15.16;nan
77360;BME280;66426;51.454;7.266;2023-08-06T00:19:10;99066.59;;;15.17;nan
77360;BME280;66426;51.454;7.266;2023-08-06T00:20:11;99068.91;;;15.21;nan
77360;BME280;66426;51.454;7.266;2023-08-06T00:21:12;99061.78;;;15.20;nan
77360;BME280;66426;51.454;7.266;2023-08-06T00:22:13;99069.19;;;15.18;nan
77360;BME280;66426;51.454;7.266;2023-08-06T00:23:14;99064.59;;;15.19;nan
77360;BME280;66426;51.454;7.266;2023-08-06T00:24:15;99073.13;;;15.14;nan
77360;BME280;66426;51.454;7.266;2023-08-06T00:25:16;99069.63;;;15.23;nan
77360;BME280;66426;51.454;7.266;2023-08-06T00:26:17;99066.06;;;15.23;nan
77360;BME280;66426;51.454;7.266;2023-08-06T00:27:19;99065.47;;;15.19;nan
77360;BME280;66426;51.454;7.266;2023-08-06T00:28:20;99065.16;;;15.13;nan
77360;BME280;66426;51.454;7.266;2023-08-06T00:29:21;99062.56;;;15.11;nan
77360;BME280;66426;51.454;7.266;2023-08-06T00:30:22;99066.13;;;15.12;nan
77360;BME280;66426;51.454;7.266;2023-08-06T00:31:23;99069.91;;;15.20;nan
77360;BME280;66426;51.454;7.266;2023-08-06T00:32:23;99058.53;;;15.05;nan
77360;BME280;66426;51.454;7.266;2023-08-06T00:33:24;99059.41;;;15.06;nan
77360;BME280;66426;51.454;7.266;2023-08-06T00:34:25;99058.38;;;15.07;nan
77360;BME280;66426;51.454;7.266;2023-08-06T00:35:26;99053.69;;;15.09;nan
77360;BME280;66426;51.454;7.266;2023-08-06T00:36:27;99050.25;;;15.07;nan
77360;BME280;66426;51.454;7.266;2023-08-06T00:37:28;99051.53;;;15.03;nan
77360;BME280;66426;51.454;7.266;2023-08-06T00:38:29;99046.34;;;15.00;nan
77360;BME280;66426;51.454;7.266;2023-08-06T00:39:30;99045.22;;;15.02;nan
77360;BME280;66426;51.454;7.266;2023-08-06T00:40:31;99047.69;;;15.05;nan
77360;BME280;66426;51.454;7.266;2023-08-06T00:41:32;99047.81;;;15.04;nan
77360;BME280;66426;51.454;7.266;2023-08-06T00:42:34;99040.53;;;15.04;nan
77360;BME280;66426;51.454;7.266;2023-08-06T00:43:35;99049.66;;;15.03;nan
77360;BME280;66426;51.454;7.266;2023-08-06T00:44:36;99052.00;;;15.08;nan
77360;BME280;66426;51.454;7.266;2023-08-06T00:45:37;99044.81;;;15.07;nan
77360;BME280;66426;51.454;7.266;2023-08-06T00:46:38;99050.25;;;15.07;nan
77360;BME280;66426;51.454;7.266;2023-08-06T00:47:39;99047.69;;;15.05;nan
77360;BME280;66426;51.454;7.266;2023-08-06T00:48:40;99038.22;;;15.00;nan
77360;BME280;66426;51.454;7.266;2023-08-06T00:49:41;99044.91;;;14.96;nan
77360;BME280;66426;51.454;7.266;2023-08-06T00:50:42;99036.50;;;14.99;nan
77360;BME280;66426;51.454;7.266;2023-08-06T00:51:43;99044.25;;;15.03;nan
77360;BME280;66426;51.454;7.266;2023-08-06T00:52:44;99041.94;;;14.99;nan
77360;BME280;66426;51.454;7.266;2023-08-06T00:53:45;99036.38;;;15.00;nan
77360;BME280;66426;51.454;7.266;2023-08-06T00:54:47;99038.38;;;14.98;nan
77360;BME280;66426;51.454;7.266;2023-08-06T00:55:48;99038.22;;;15.00;nan
77360;BME280;66426;51.454;7.266;2023-08-06T00:56:49;99035.66;;;14.98;nan
77360;BME280;66426;51.454;7.266;2023-08-06T00:57:51;99036.91;;;14.94;nan
77360;BME280;66426;51.454;7.266;2023-08-06T00:58:53;99031.81;;;15.01;nan
77360;BME280;66426;51.454;7.266;2023-08-06T00:59:55;99031.13;;;15.08;nan
77360;BME280;66426;51.454;7.266;2023-08-06T01:00:56;99028.53;;;15.07;nan
77360;BME280;66426;51.454;7.266;2023-08-06T01:01:56;99030.00;;;15.11;nan
77360;BME280;66426;51.454;7.266;2023-08-06T01:02:57;99036.41;;;15.10;nan
77360;BME280;66426;51.454;7.266;2023-08-06T01:03:58;99021.25;;;15.07;nan
77360;BME280;66426;51.454;7.266;2023-08-06T01:04:59;99031.66;;;15.02;nan
77360;BME280;66426;51.454;7.266;2023-08-06T01:06:00;99025.25;;;15.03;nan
77360;BME280;66426;51.454;7.266;2023-08-06T01:07:03;99023.78;;;14.99;nan
77360;BME280;66426;51.454;7.266;2023-08-06T01:08:10;99022.94;;;14.99;nan
77360;BME280;66426;51.454;7.266;2023-08-06T01:09:15;99015.06;;;14.96;nan
77360;BME280;66426;51.454;7.266;2023-08-06T01:10:27;99014.81;;;14.99;nan
77360;BME280;66426;51.454;7.266;2023-08-06T01:11:33;99018.44;;;15.09;nan
77360;BME280;66426;51.454;7.266;2023-08-06T01:12:41;99011.41;;;15.06;nan
77360;BME280;66426;51.454;7.266;2023-08-06T01:13:46;99011.16;;;15.09;nan
77360;BME280;66426;51.454;7.266;2023-08-06T01:14:48;99017.13;;;15.03;nan
77360;BME280;66426;51.454;7.266;2023-08-06T01:15:52;99014.41;;;15.03;nan
77360;BME280;66426;51.454;7.266;2023-08-06T01:16:55;99015.94;;;14.96;nan
77360;BME280;66426;51.454;7.266;2023-08-06T01:17:57;99010.38;;;14.98;nan
77360;BME280;66426;51.454;7.266;2023-08-06T01:18:57;99010.56;;;15.06;nan
77360;BME280;66426;51.454;7.266;2023-08-06T01:19:58;99007.25;;;15.02;nan
77360;BME280;66426;51.454;7.266;2023-08-06T01:21:01;99009.25;;;15.00;nan
77360;BME280;66426;51.454;7.266;2023-08-06T01:22:02;99011.09;;;15.00;nan
77360;BME280;66426;51.454;7.266;2023-08-06T01:23:02;99013.41;;;15.04;nan
77360;BME280;66426;51.454;7.266;2023-08-06T01:24:03;99011.09;;;15.00;nan
77360;BME280;66426;51.454;7.266;2023-08-06T01:25:05;99008.38;;;15.00;nan
77360;BME280;66426;51.454;7.266;2023-08-06T01:26:09;99014.22;;;14.95;nan
77360;BME280;66426;51.454;7.266;2023-08-06T01:27:14;99013.09;;;14.98;nan
77360;BME280;66426;51.454;7.266;2023-08-06T01:28:16;99011.09;;;15.00;nan
77360;BME280;66426;51.454;7.266;2023-08-06T01:29:22;99010.97;;;15.01;nan
77360;BME280;66426;51.454;7.266;2023-08-06T01:30:25;99015.81;;;14.98;nan
77360;BME280;66426;51.454;7.266;2023-08-06T01:31:27;99013.22;;;14.96;nan
77360;BME280;66426;51.454;7.266;2023-08-06T01:32:31;99011.81;;;15.02;nan
77360;BME280;66426;51.454;7.266;2023-08-06T01:33:32;99004.97;;;14.98;nan
77360;BME280;66426;51.454;7.266;2023-08-06T01:34:35;99013.22;;;14.96;nan
77360;BME280;66426;51.454;7.266;2023-08-06T01:35:36;99008.66;;;14.97;nan
77360;BME280;66426;51.454;7.266;2023-08-06T01:36:40;99005.94;;;14.97;nan
77360;BME280;66426;51.454;7.266;2023-08-06T01:37:41;99004.69;;;15.01;nan
77360;BME280;66426;51.454;7.266;2023-08-06T01:38:42;99000.50;;;14.97;nan
77360;BME280;66426;51.454;7.266;2023-08-06T01:39:43;98999.25;;;15.01;nan
77360;BME280;66426;51.454;7.266;2023-08-06T01:40:44;99001.63;;;14.94;nan
77360;BME280;66426;51.454;7.266;2023-08-06T01:41:45;99000.38;;;14.98;nan
77360;BME280;66426;51.454;7.266;2023-08-06T01:42:46;99005.09;;;14.96;nan
77360;BME280;66426;51.454;7.266;2023-08-06T01:43:47;98999.66;;;14.96;nan
77360;BME280;66426;51.454;7.266;2023-08-06T01:44:48;98995.94;;;14.97;nan
77360;BME280;66426;51.454;7.266;2023-08-06T01:45:49;99003.09;;;14.98;nan
77360;BME280;66426;51.454;7.266;2023-08-06T01:46:50;98999.38;;;14.99;nan
77360;BME280;66426;51.454;7.266;2023-08-06T01:47:51;99001.25;;;14.99;nan
77360;BME280;66426;51.454;7.266;2023-08-06T01:48:52;98999.94;;;14.93;nan
77360;BME280;66426;51.454;7.266;2023-08-06T01:49:53;99000.38;;;14.98;nan
77360;BME280;66426;51.454;7.266;2023-08-06T01:50:54;99000.38;;;14.98;nan
77360;BME280;66426;51.454;7.266;2023-08-06T01:51:56;98997.69;;;14.98;nan
77360;BME280;66426;51.454;7.266;2023-08-06T01:52:57;99000.13;;;15.01;nan
77360;BME280;66426;51.454;7.266;2023-08-06T01:53:58;98996.66;;;14.99;nan
77360;BME280;66426;51.454;7.266;2023-08-06T01:54:59;99002.25;;;14.98;nan
77360;BME280;66426;51.454;7.266;2023-08-06T01:55:59;98998.53;;;14.99;nan
77360;BME280;66426;51.454;7.266;2023-08-06T01:57:00;99000.84;;;15.03;nan
77360;BME280;66426;51.454;7.266;2023-08-06T01:58:01;99002.56;;;15.04;nan
77360;BME280;66426;51.454;7.266;2023-08-06T01:59:02;99002.72;;;15.03;nan
77360;BME280;66426;51.454;7.266;2023-08-06T02:00:03;98997.41;;;15.01;nan
77360;BME280;66426;51.454;7.266;2023-08-06T02:01:04;98994.81;;;15.00;nan
77360;BME280;66426;51.454;7.266;2023-08-06T02:02:05;99000.56;;;15.06;nan
77360;BME280;66426;51.454;7.266;2023-08-06T02:03:06;98991.84;;;15.03;nan
77360;BME280;66426;51.454;7.266;2023-08-06T02:04:07;99000.84;;;15.03;nan
77360;BME280;66426;51.454;7.266;2023-08-06T02:05:08;98985.16;;;15.07;nan
77360;BME280;66426;51.454;7.266;2023-08-06T02:06:09;98991.25;;;14.99;nan
77360;BME280;66426;51.454;7.266;2023-08-06T02:07:11;98994.28;;;15.06;nan
77360;BME280;66426;51.454;7.266;2023-08-06T02:08:12;98984.16;;;15.08;nan
77360;BME280;66426;51.454;7.266;2023-08-06T02:09:13;98985.69;;;15.01;nan
77360;BME280;66426;51.454;7.266;2023-08-06T02:10:14;98987.00;;;15.06;nan
77360;BME280;66426;51.454;7.266;2023-08-06T02:11:14;98986.69;;;15.00;nan
77360;BME280;66426;51.454;7.266;2023-08-06T02:12:15;98983.56;;;15.04;nan
77360;BME280;66426;51.454;7.266;2023-08-06T02:13:16;98985.41;;;15.04;nan
77360;BME280;66426;51.454;7.266;2023-08-06T02:14:17;98988.72;;;15.07;nan
77360;BME280;66426;51.454;7.266;2023-08-06T02:15:18;98980.28;;;15.01;nan
77360;BME280;66426;51.454;7.266;2023-08-06T02:16:19;98978.53;;;15.00;nan
77360;BME280;66426;51.454;7.266;2023-08-06T02:17:20;98981.59;;;15.06;nan
77360;BME280;66426;51.454;7.266;2023-08-06T02:18:21;98978.59;;;15.09;nan
77360;BME280;66426;51.454;7.266;2023-08-06T02:19:21;98985.59;;;15.12;nan
77360;BME280;66426;51.454;7.266;2023-08-06T02:20:22;98982.72;;;15.04;nan
77360;BME280;66426;51.454;7.266;2023-08-06T02:21:23;98982.59;;;15.05;nan
77360;BME280;66426;51.454;7.266;2023-08-06T02:22:25;98985.53;;;15.02;nan
77360;BME280;66426;51.454;7.266;2023-08-06T02:23:26;98976.44;;;15.03;nan
77360;BME280;66426;51.454;7.266;2023-08-06T02:24:27;98970.56;;;14.98;nan
77360;BME280;66426;51.454;7.266;2023-08-06T02:25:28;98971.13;;;15.02;nan
77360;BME280;66426;51.454;7.266;2023-08-06T02:26:29;98971.84;;;15.04;nan
77360;BME280;66426;51.454;7.266;2023-08-06T02:27:30;98975.59;;;15.03;nan
77360;BME280;66426;51.454;7.266;2023-08-06T02:28:31;98975.31;;;15.06;nan
77360;BME280;66426;51.454;7.266;2023-08-06T02:29:33;98976.28;;;15.05;nan
77360;BME280;66426;51.454;7.266;2023-08-06T02:30:33;98973.56;;;15.05;nan
77360;BME280;66426;51.454;7.266;2023-08-06T02:31:34;98977.09;;;14.96;nan
77360;BME280;66426;51.454;7.266;2023-08-06T02:32:35;98968.56;;;15.00;nan
77360;BME280;66426;51.454;7.266;2023-08-06T02:33:36;98968.03;;;15.06;nan
77360;BME280;66426;51.454;7.266;2023-08-06T02:34:37;98966.16;;;15.07;nan
77360;BME280;66426;51.454;7.266;2023-08-06T02:35:38;98970.84;;;15.05;nan
77360;BME280;66426;51.454;7.266;2023-08-06T02:36:39;98962.53;;;14.97;nan
77360;BME280;66426;51.454;7.266;2023-08-06T02:37:41;98958.66;;;14.89;nan
77360;BME280;66426;51.454;7.266;2023-08-06T02:38:42;98964.53;;;14.95;nan
77360;BME280;66426;51.454;7.266;2023-08-06T02:39:43;98973.66;;;14.94;nan
77360;BME280;66426;51.454;7.266;2023-08-06T02:40:44;98971.81;;;14.94;nan
77360;BME280;66426;51.454;7.266;2023-08-06T02:41:46;98968.53;;;14.91;nan
77360;BME280;66426;51.454;7.266;2023-08-06T02:42:46;98966.53;;;14.93;nan
77360;BME280;66426;51.454;7.266;2023-08-06T02:43:47;98964.41;;;14.96;nan
77360;BME280;66426;51.454;7.266;2023-08-06T02:44:49;98960.97;;;14.94;nan
77360;BME280;66426;51.454;7.266;2023-08-06T02:45:49;98958.34;;;14.83;nan
77360;BME280;66426;51.454;7.266;2023-08-06T02:46:50;98951.97;;;14.94;nan
77360;BME280;66426;51.454;7.266;2023-08-06T02:47:51;98953.91;;;14.82;nan
77360;BME280;66426;51.454;7.266;2023-08-06T02:48:52;98956.94;;;14.88;nan
77360;BME280;66426;51.454;7.266;2023-08-06T02:49:53;98954.41;;;14.97;nan
77360;BME280;66426;51.454;7.266;2023-08-06T02:50:56;98950.25;;;14.93;nan
77360;BME280;66426;51.454;7.266;2023-08-06T02:51:57;98949.13;;;14.95;nan
77360;BME280;66426;51.454;7.266;2023-08-06T02:53:00;98944.41;;;14.97;nan
77360;BME280;66426;51.454;7.266;2023-08-06T02:54:01;98944.56;;;14.96;nan
77360;BME280;66426;51.454;7.266;2023-08-06T02:55:02;98941.53;;;14.89;nan
77360;BME280;66426;51.454;7.266;2023-08-06T02:56:03;98934.91;;;14.82;nan
77360;BME280;66426;51.454;7.266;2023-08-06T02:57:04;98933.78;;;14.84;nan
77360;BME280;66426;51.454;7.266;2023-08-06T02:58:05;98940.06;;;14.85;nan
77360;BME280;66426;51.454;7.266;2023-08-06T02:59:06;98937.06;;;14.78;nan
77360;BME280;66426;51.454;7.266;2023-08-06T03:00:07;98930.78;;;14.78;nan
77360;BME280;66426;51.454;7.266;2023-08-06T03:01:08;98930.78;;;14.78;nan
77360;BME280;66426;51.454;7.266;2023-08-06T03:02:09;98930.50;;;14.81;nan
77360;BME280;66426;51.454;7.266;2023-08-06T03:03:10;98933.78;;;14.84;nan
77360;BME280;66426;51.454;7.266;2023-08-06T03:04:11;98928.91;;;14.78;nan
77360;BME280;66426;51.454;7.266;2023-08-06T03:05:12;98930.63;;;14.79;nan
77360;BME280;66426;51.454;7.266;2023-08-06T03:06:13;98929.91;;;14.77;nan
77360;BME280;66426;51.454;7.266;2023-08-06T03:07:14;98934.19;;;14.80;nan
77360;BME280;66426;51.454;7.266;2023-08-06T03:08:16;98932.09;;;14.83;nan
77360;BME280;66426;51.454;7.266;2023-08-06T03:09:17;98927.34;;;14.76;nan
77360;BME280;66426;51.454;7.266;2023-08-06T03:10:18;98924.34;;;14.79;nan
77360;BME280;66426;51.454;7.266;2023-08-06T03:11:19;98930.34;;;14.82;nan
77360;BME280;66426;51.454;7.266;2023-08-06T03:12:19;98929.94;;;14.87;nan
77360;BME280;66426;51.454;7.266;2023-08-06T03:13:20;98928.09;;;14.87;nan
77360;BME280;66426;51.454;7.266;2023-08-06T03:14:21;98914.53;;;14.87;nan
77360;BME280;66426;51.454;7.266;2023-08-06T03:15:22;98914.22;;;14.81;nan
77360;BME280;66426;51.454;7.266;2023-08-06T03:16:23;98916.53;;;14.85;nan
77360;BME280;66426;51.454;7.266;2023-08-06T03:17:24;98914.69;;;14.86;nan
77360;BME280;66426;51.454;7.266;2023-08-06T03:18:25;98913.22;;;14.82;nan
77360;BME280;66426;51.454;7.266;2023-08-06T03:19:29;98918.66;;;14.82;nan
77360;BME280;66426;51.454;7.266;2023-08-06T03:20:29;98921.34;;;14.82;nan
77360;BME280;66426;51.454;7.266;2023-08-06T03:21:30;98916.78;;;14.82;nan
77360;BME280;66426;51.454;7.266;2023-08-06T03:22:31;98920.63;;;14.80;nan
77360;BME280;66426;51.454;7.266;2023-08-06T03:23:33;98913.63;;;14.77;nan
77360;BME280;66426;51.454;7.266;2023-08-06T03:24:34;98912.78;;;14.77;nan
77360;BME280;66426;51.454;7.266;2023-08-06T03:25:35;98914.34;;;14.79;nan
77360;BME280;66426;51.454;7.266;2023-08-06T03:26:37;98920.63;;;14.80;nan
77360;BME280;66426;51.454;7.266;2023-08-06T03:27:38;98912.66;;;14.78;nan
77360;BME280;66426;51.454;7.266;2023-08-06T03:28:39;98911.47;;;14.71;nan
77360;BME280;66426;51.454;7.266;2023-08-06T03:29:40;98916.78;;;14.73;nan
77360;BME280;66426;51.454;7.266;2023-08-06T03:30:41;98921.19;;;14.74;nan
77360;BME280;66426;51.454;7.266;2023-08-06T03:31:42;98922.03;;;14.74;nan
77360;BME280;66426;51.454;7.266;2023-08-06T03:32:43;98921.06;;;14.75;nan
77360;BME280;66426;51.454;7.266;2023-08-06T03:33:43;98919.47;;;14.73;nan
77360;BME280;66426;51.454;7.266;2023-08-06T03:34:44;98913.50;;;14.79;nan
77360;BME280;66426;51.454;7.266;2023-08-06T03:35:45;98912.94;;;14.75;nan
77360;BME280;66426;51.454;7.266;2023-08-06T03:36:46;98920.22;;;14.84;nan
77360;BME280;66426;51.454;7.266;2023-08-06T03:37:47;98915.09;;;14.81;nan
77360;BME280;66426;51.454;7.266;2023-08-06T03:38:50;98917.34;;;14.76;nan
77360;BME280;66426;51.454;7.266;2023-08-06T03:39:51;98910.88;;;14.67;nan
77360;BME280;66426;51.454;7.266;2023-08-06T03:40:52;98917.69;;;14.62;nan
77360;BME280;66426;51.454;7.266;2023-08-06T03:41:53;98913.50;;;14.79;nan
77360;BME280;66426;51.454;7.266;2023-08-06T03:42:54;98918.94;;;14.79;nan
77360;BME280;66426;51.454;7.266;2023-08-06T03:43:54;98914.06;;;14.82;nan
77360;BME280;66426;51.454;7.266;2023-08-06T03:44:55;98914.63;;;14.76;nan
77360;BME280;66426;51.454;7.266;2023-08-06T03:45:56;98918.94;;;14.79;nan
77360;BME280;66426;51.454;7.266;2023-08-06T03:46:57;98911.91;;;14.76;nan
77360;BME280;66426;51.454;7.266;2023-08-06T03:47:58;98920.91;;;14.77;nan
77360;BME280;66426;51.454;7.266;2023-08-06T03:48:59;98918.06;;;14.78;nan
77360;BME280;66426;51.454;7.266;2023-08-06T03:50:00;98910.22;;;14.75;nan
77360;BME280;66426;51.454;7.266;2023-08-06T03:51:01;98919.06;;;14.77;nan
77360;BME280;66426;51.454;7.266;2023-08-06T03:52:02;98911.53;;;14.81;nan
77360;BME280;66426;51.454;7.266;2023-08-06T03:53:03;98913.50;;;14.79;nan
77360;BME280;66426;51.454;7.266;2023-08-06T03:54:06;98906.09;;;14.81;nan
77360;BME280;66426;51.454;7.266;2023-08-06T03:55:07;98903.78;;;14.76;nan
77360;BME280;66426;51.454;7.266;2023-08-06T03:56:07;98905.25;;;14.80;nan
77360;BME280;66426;51.454;7.266;2023-08-06T03:57:08;98903.22;;;14.82;nan
77360;BME280;66426;51.454;7.266;2023-08-06T03:58:10;98914.81;;;14.84;nan
77360;BME280;66426;51.454;7.266;2023-08-06T03:59:10;98903.97;;;14.84;nan
77360;BME280;66426;51.454;7.266;2023-08-06T04:00:12;98899.94;;;14.79;nan
77360;BME280;66426;51.454;7.266;2023-08-06T04:01:13;98896.84;;;14.83;nan
77360;BME280;66426;51.454;7.266;2023-08-06T04:02:14;98901.97;;;14.86;nan
77360;BME280;66426;51.454;7.266;2023-08-06T04:03:15;98898.25;;;14.78;nan
77360;BME280;66426;51.454;7.266;2023-08-06T04:04:15;98900.81;;;14.79;nan
77360;BME280;66426;51.454;7.266;2023-08-06T04:05:16;98906.84;;;14.62;nan
77360;BME280;66426;51.454;7.266;2023-08-06T04:06:17;98907.50;;;14.75;nan
77360;BME280;66426;51.454;7.266;2023-08-06T04:07:18;98901.53;;;14.81;nan
77360;BME280;66426;51.454;7.266;2023-08-06T04:08:19;98905.66;;;14.76;nan
77360;BME280;66426;51.454;7.266;2023-08-06T04:09:21;98904.25;;;14.81;nan
77360;BME280;66426;51.454;7.266;2023-08-06T04:10:22;98906.94;;;14.81;nan
77360;BME280;66426;51.454;7.266;2023-08-06T04:11:23;98908.66;;;14.82;nan
77360;BME280;66426;51.454;7.266;2023-08-06T04:12:24;98909.25;;;14.86;nan
77360;BME280;66426;51.454;7.266;2023-08-06T04:13:25;98903.09;;;14.84;nan
77360;BME280;66426;51.454;7.266;2023-08-06T04:14:26;98903.84;;;14.86;nan
77360;BME280;66426;51.454;7.266;2023-08-06T04:15:27;98908.25;;;14.87;nan
77360;BME280;66426;51.454;7.266;2023-08-06T04:16:28;98903.69;;;14.87;nan
77360;BME280;66426;51.454;7.266;2023-08-06T04:17:29;98907.41;;;14.86;nan
77360;BME280;66426;51.454;7.266;2023-08-06T04:18:30;98897.41;;;14.87;nan
77360;BME280;66426;51.454;7.266;2023-08-06T04:19:31;98901.44;;;14.93;nan
77360;BME280;66426;51.454;7.266;2023-08-06T04:20:32;98898.75;;;14.93;nan
77360;BME280;66426;51.454;7.266;2023-08-06T04:21:32;98897.31;;;14.98;nan
77360;BME280;66426;51.454;7.266;2023-08-06T04:22:33;98897.72;;;14.94;nan
77360;BME280;66426;51.454;7.266;2023-08-06T04:23:34;98898.41;;;14.86;nan
77360;BME280;66426;51.454;7.266;2023-08-06T04:24:36;98900.63;;;14.71;nan
77360;BME280;66426;51.454;7.266;2023-08-06T04:25:37;98903.22;;;14.73;nan
77360;BME280;66426;51.454;7.266;2023-08-06T04:26:38;98896.97;;;14.82;nan
77360;BME280;66426;51.454;7.266;2023-08-06T04:27:39;98896.22;;;14.80;nan
77360;BME280;66426;51.454;7.266;2023-08-06T04:28:42;98893.41;;;14.81;nan
77360;BME280;66426;51.454;7.266;2023-08-06T04:29:43;98901.41;;;14.83;nan
77360;BME280;66426;51.454;7.266;2023-08-06T04:30:43;98894.84;;;14.85;nan
77360;BME280;66426;51.454;7.266;2023-08-06T04:31:44;98896.28;;;14.89;nan
77360;BME280;66426;51.454;7.266;2023-08-06T04:32:45;98903.56;;;14.89;nan
77360;BME280;66426;51.454;7.266;2023-08-06T04:33:46;98898.81;;;14.81;nan
77360;BME280;66426;51.454;7.266;2023-08-06T04:34:47;98901.53;;;14.81;nan
77360;BME280;66426;51.454;7.266;2023-08-06T04:35:53;98904.56;;;14.88;nan
77360;BME280;66426;51.454;7.266;2023-08-06T04:36:54;98903.22;;;14.82;nan
77360;BME280;66426;51.454;7.266;2023-08-06T04:37:55;98900.72;;;14.91;nan
77360;BME280;66426;51.454;7.266;2023-08-06T04:38:56;98901.28;;;14.94;nan
77360;BME280;66426;51.454;7.266;2023-08-06T04:39:58;98900.88;;;14.99;nan
77360;BME280;66426;51.454;7.266;2023-08-06T04:40:59;98904.59;;;14.98;nan
77360;BME280;66426;51.454;7.266;2023-08-06T04:42:00;98897.72;;;14.94;nan
77360;BME280;66426;51.454;7.266;2023-08-06T04:43:01;98900.31;;;14.95;nan
77360;BME280;66426;51.454;7.266;2023-08-06T04:44:02;98899.72;;;14.92;nan
77360;BME280;66426;51.454;7.266;2023-08-06T04:45:04;98902.25;;;14.83;nan
77360;BME280;66426;51.454;7.266;2023-08-06T04:46:05;98900.69;;;14.81;nan
77360;BME280;66426;51.454;7.266;2023-08-06T04:47:06;98896.78;;;14.74;nan
77360;BME280;66426;51.454;7.266;2023-08-06T04:48:07;98898.69;;;14.83;nan
77360;BME280;66426;51.454;7.266;2023-08-06T04:49:08;98894.25;;;14.82;nan
77360;BME280;66426;51.454;7.266;2023-08-06T04:50:09;98899.16;;;14.88;nan
77360;BME280;66426;51.454;7.266;2023-08-06T04:51:10;98902.25;;;14.83;nan
77360;BME280;66426;51.454;7.266;2023-08-06T04:52:11;98897.00;;;14.92;nan
77360;BME280;66426;51.454;7.266;2023-08-06T04:53:12;98894.00;;;14.95;nan
77360;BME280;66426;51.454;7.266;2023-08-06T04:54:13;98901.00;;;14.97;nan
77360;BME280;66426;51.454;7.266;2023-08-06T04:55:15;98896.88;;;14.93;nan
77360;BME280;66426;51.454;7.266;2023-08-06T04:56:16;98888.06;;;15.01;nan
77360;BME280;66426;51.454;7.266;2023-08-06T04:57:17;98896.59;;;14.96;nan
77360;BME280;66426;51.454;7.266;2023-08-06T04:58:18;98889.72;;;14.92;nan
77360;BME280;66426;51.454;7.266;2023-08-06T04:59:18;98890.31;;;14.96;nan
77360;BME280;66426;51.454;7.266;2023-08-06T05:00:19;98891.56;;;14.92;nan
77360;BME280;66426;51.454;7.266;2023-08-06T05:01:20;98891.91;;;14.98;nan
77360;BME280;66426;51.454;7.266;2023-08-06T05:02:21;98889.91;;;15.00;nan
77360;BME280;66426;51.454;7.266;2023-08-06T05:03:22;98898.19;;;14.99;nan
77360;BME280;66426;51.454;7.266;2023-08-06T05:04:23;98898.00;;;14.91;nan
77360;BME280;66426;51.454;7.266;2023-08-06T05:05:24;98898.88;;;14.91;nan
77360;BME280;66426;51.454;7.266;2023-08-06T05:06:25;98895.88;;;14.94;nan
77360;BME280;66426;51.454;7.266;2023-08-06T05:07:26;98897.13;;;14.90;nan
77360;BME280;66426;51.454;7.266;2023-08-06T05:08:27;98888.53;;;14.85;nan
77360;BME280;66426;51.454;7.266;2023-08-06T05:09:28;98885.88;;;14.95;nan
77360;BME280;66426;51.454;7.266;2023-08-06T05:10:30;98892.59;;;14.91;nan
77360;BME280;66426;51.454;7.266;2023-08-06T05:11:31;98897.13;;;14.80;nan
77360;BME280;66426;51.454;7.266;2023-08-06T05:12:32;98899.53;;;14.83;nan
77360;BME280;66426;51.454;7.266;2023-08-06T05:13:33;98895.38;;;14.79;nan
77360;BME280;66426;51.454;7.266;2023-08-06T05:14:34;98899.66;;;14.82;nan
77360;BME280;66426;51.454;7.266;2023-08-06T05:15:34;98904.56;;;14.88;nan
77360;BME280;66426;51.454;7.266;2023-08-06T05:16:35;98900.94;;;14.78;nan
77360;BME280;66426;51.454;7.266;2023-08-06T05:17:36;98905.94;;;14.82;nan
77360;BME280;66426;51.454;7.266;2023-08-06T05:18:37;98908.97;;;14.89;nan
77360;BME280;66426;51.454;7.266;2023-08-06T05:19:39;98911.81;;;14.87;nan
77360;BME280;66426;51.454;7.266;2023-08-06T05:20:40;98912.41;;;14.91;nan
77360;BME280;66426;51.454;7.266;2023-08-06T05:21:41;98910.56;;;14.92;nan
77360;BME280;66426;51.454;7.266;2023-08-06T05:22:43;98909.03;;;14.99;nan
77360;BME280;66426;51.454;7.266;2023-08-06T05:23:44;98911.19;;;15.05;nan
77360;BME280;66426;51.454;7.266;2023-08-06T05:24:44;98913.63;;;15.08;nan
77360;BME280;66426;51.454;7.266;2023-08-06T05:25:47;98912.19;;;15.04;nan
77360;BME280;66426;51.454;7.266;2023-08-06T05:26:48;98908.22;;;15.08;nan
77360;BME280;66426;51.454;7.266;2023-08-06T05:27:49;98911.19;;;15.05;nan
77360;BME280;66426;51.454;7.266;2023-08-06T05:28:50;98909.34;;;15.05;nan
77360;BME280;66426;51.454;7.266;2023-08-06T05:29:54;98914.81;;;15.15;nan
77360;BME280;66426;51.454;7.266;2023-08-06T05:30:55;98917.97;;;15.20;nan
77360;BME280;66426;51.454;7.266;2023-08-06T05:31:56;98913.13;;;15.24;nan
77360;BME280;66426;51.454;7.266;2023-08-06T05:32:57;98915.25;;;15.20;nan
77360;BME280;66426;51.454;7.266;2023-08-06T05:33:58;98915.25;;;15.30;nan